Time;durP1;ratioP1;P1;durP2;ratioP2;P2;SDS_P1;SDS_P2;PMS_P1;PMS_P2;Temp;Humidity;BMP_temperature;BMP_pressure;BME280_temperature;BME280_humidity;BME280_pressure;Samples;Min_cycle;Max_cycle;Signal;HPM_P1;HPM_P2
2022/03/11 00:00:52;;;;;;;15.15;8.50;;;7.00;98.00;;;;;;5131851;27;20067;-75
2022/03/11 00:03:20;;;;;;;16.17;8.05;;;7.10;97.70;;;;;;5149472;27;20053;-75
2022/03/11 00:05:46;;;;;;;14.98;8.25;;;8.20;98.30;;;;;;5131476;27;20079;-74
2022/03/11 00:08:12;;;;;;;12.27;7.65;;;6.50;98.10;;;;;;5150078;27;20051;-74
2022/03/11 00:10:38;;;;;;;13.00;7.50;;;7.20;98.30;;;;;;5132093;27;20049;-74
2022/03/11 00:13:04;;;;;;;11.18;7.28;;;7.90;98.50;;;;;;5132503;27;20125;-74
2022/03/11 00:15:30;;;;;;;13.32;7.93;;;8.10;99.00;;;;;;5129125;27;20154;-74
2022/03/11 00:17:55;;;;;;;13.02;8.07;;;7.30;99.00;;;;;;5130790;27;20070;-74
2022/03/11 00:20:21;;;;;;;11.93;7.75;;;7.70;99.30;;;;;;5150490;27;20039;-74
2022/03/11 00:22:51;;;;;;;13.00;8.07;;;8.10;99.50;;;;;;5149190;27;20066;-74
2022/03/11 00:25:17;;;;;;;12.65;7.68;;;5.40;98.90;;;;;;5132243;27;20031;-75
2022/03/11 00:27:44;;;;;;;12.40;7.63;;;7.70;99.70;;;;;;5149445;27;20042;-74
2022/03/11 00:30:10;;;;;;;13.18;7.50;;;7.80;99.90;;;;;;5152008;27;20051;-74
2022/03/11 00:32:36;;;;;;;16.08;7.88;;;6.30;99.90;;;;;;5129617;27;20491;-74
2022/03/11 00:35:04;;;;;;;10.38;7.35;;;7.80;99.90;;;;;;5132721;27;20157;-74
2022/03/11 00:37:29;;;;;;;14.18;6.95;;;6.30;99.90;;;;;;5129846;27;20042;-75
2022/03/11 00:39:55;;;;;;;12.60;7.85;;;6.30;99.90;;;;;;5130708;27;20050;-74
2022/03/11 00:42:21;;;;;;;14.75;7.57;;;6.30;99.90;;;;;;5140168;27;20054;-75
2022/03/11 00:44:47;;;;;;;12.40;7.03;;;6.30;99.90;;;;;;5145836;27;20780;-75
2022/03/11 00:47:12;;;;;;;12.98;7.22;;;6.30;99.90;;;;;;5149161;27;20078;-74
2022/03/11 00:49:38;;;;;;;12.40;7.03;;;7.30;99.90;;;;;;5129910;27;20390;-74
2022/03/11 00:52:04;;;;;;;15.25;7.57;;;6.20;99.90;;;;;;5131091;27;20493;-75
2022/03/11 00:54:30;;;;;;;13.25;6.90;;;6.20;99.90;;;;;;5113217;27;20053;-75
2022/03/11 00:56:56;;;;;;;12.25;7.28;;;6.90;99.90;;;;;;5130993;27;20149;-74
2022/03/11 00:59:22;;;;;;;12.95;6.40;;;7.10;99.90;;;;;;5132036;27;20186;-74
2022/03/11 01:01:48;;;;;;;13.25;6.88;;;6.10;99.90;;;;;;5151470;27;20384;-74
2022/03/11 01:04:14;;;;;;;12.57;7.10;;;6.20;99.90;;;;;;5150359;27;20398;-74
2022/03/11 01:06:40;;;;;;;13.48;7.25;;;7.60;99.90;;;;;;5130260;27;20395;-75
2022/03/11 01:09:06;;;;;;;11.40;7.22;;;7.70;99.90;;;;;;5132187;27;20046;-75
2022/03/11 01:11:32;;;;;;;12.02;7.45;;;7.40;99.90;;;;;;5147074;27;20038;-75
2022/03/11 01:13:58;;;;;;;13.50;7.50;;;7.60;99.90;;;;;;5130798;27;20042;-75
2022/03/11 01:16:23;;;;;;;12.82;7.47;;;7.70;99.90;;;;;;5130623;27;20418;-75
2022/03/11 01:18:50;;;;;;;12.60;7.20;;;7.40;99.90;;;;;;5146670;27;20527;-75
2022/03/11 01:21:16;;;;;;;12.93;7.97;;;7.40;99.90;;;;;;5150141;27;20042;-75
2022/03/11 01:23:42;;;;;;;13.63;8.07;;;6.30;99.90;;;;;;5148081;27;20094;-75
2022/03/11 01:26:08;;;;;;;12.68;7.97;;;7.20;99.90;;;;;;5130872;27;20487;-74
2022/03/11 01:28:34;;;;;;;12.85;8.38;;;5.30;99.90;;;;;;5130460;27;20057;-74
2022/03/11 01:31:00;;;;;;;16.50;8.90;;;5.10;99.90;;;;;;5131737;27;20402;-74
2022/03/11 01:33:26;;;;;;;15.10;7.32;;;6.70;99.90;;;;;;5149530;27;20060;-75
2022/03/11 01:35:51;;;;;;;14.50;8.50;;;5.90;99.90;;;;;;5149155;27;20480;-74
2022/03/11 01:38:17;;;;;;;13.40;8.60;;;6.70;99.90;;;;;;5129206;27;20479;-74
2022/03/11 01:40:43;;;;;;;14.45;8.52;;;5.90;99.90;;;;;;5113519;27;20498;-74
2022/03/11 01:43:16;;;;;;;17.75;8.45;;;5.00;99.90;;;;;;5148487;27;20058;-74
2022/03/11 01:45:43;;;;;;;14.60;9.00;;;7.10;99.90;;;;;;5151146;27;20368;-74
2022/03/11 01:48:10;;;;;;;15.50;8.80;;;5.80;99.90;;;;;;5151801;27;20498;-75
2022/03/11 01:50:40;;;;;;;15.38;9.80;;;5.80;99.90;;;;;;5134218;27;20095;-74
2022/03/11 01:53:11;;;;;;;12.15;8.30;;;5.80;99.90;;;;;;5133741;27;20039;-75
2022/03/11 01:55:37;;;;;;;17.42;9.73;;;5.70;99.90;;;;;;5137084;27;20054;-74
2022/03/11 01:58:05;;;;;;;15.18;9.52;;;5.70;99.90;;;;;;5129819;27;20110;-74
2022/03/11 02:00:35;;;;;;;15.07;9.45;;;7.00;99.90;;;;;;5132158;27;20047;-74
2022/03/11 02:03:01;;;;;;;13.88;8.98;;;;;;;;;;5132195;27;20043;-74
2022/03/11 02:05:28;;;;;;;17.55;10.02;;;5.40;99.90;;;;;;5132649;27;20050;-74
2022/03/11 02:07:57;;;;;;;15.00;9.32;;;5.50;99.90;;;;;;5131412;27;20045;-74
2022/03/11 02:10:23;;;;;;;15.52;9.32;;;5.50;99.90;;;;;;5123391;27;20044;-75
2022/03/11 02:12:49;;;;;;;16.40;9.68;;;5.40;99.90;;;;;;5124423;27;20151;-74
2022/03/11 02:15:15;;;;;;;15.82;10.32;;;6.90;99.90;;;;;;5132698;27;20092;-75
2022/03/11 02:17:41;;;;;;;17.70;10.90;;;6.40;99.90;;;;;;5113580;27;20134;-74
2022/03/11 02:20:07;;;;;;;19.98;10.32;;;5.30;99.90;;;;;;5115895;27;20042;-75
2022/03/11 02:22:36;;;;;;;19.60;10.73;;;5.30;99.90;;;;;;5129463;27;20050;-74
2022/03/11 02:25:08;;;;;;;17.42;11.15;;;6.40;99.90;;;;;;5114127;27;20055;-75
2022/03/11 02:27:38;;;;;;;17.27;11.57;;;5.20;99.90;;;;;;5130996;27;20043;-74
2022/03/11 02:30:15;;;;;;;19.05;10.85;;;6.30;99.90;;;;;;5133779;27;20046;-75
2022/03/11 02:32:41;;;;;;;19.60;11.32;;;5.20;99.90;;;;;;5129427;27;20144;-75
2022/03/11 02:35:08;;;;;;;18.48;11.70;;;6.10;99.90;;;;;;5131121;27;20092;-75
2022/03/11 02:37:34;;;;;;;23.33;11.80;;;5.10;99.90;;;;;;5129399;27;20047;-75
2022/03/11 02:40:00;;;;;;;20.30;12.23;;;6.60;99.90;;;;;;5113451;27;20046;-75
2022/03/11 02:42:25;;;;;;;20.65;12.15;;;5.10;99.90;;;;;;5129741;27;20039;-75
2022/03/11 02:44:51;;;;;;;20.38;13.18;;;6.40;99.90;;;;;;5112994;27;20043;-75
2022/03/11 02:47:17;;;;;;;19.95;12.30;;;6.00;99.90;;;;;;5129574;27;20126;-75
2022/03/11 02:49:42;;;;;;;20.75;12.65;;;4.00;99.90;;;;;;5129769;27;20050;-75
2022/03/11 02:52:08;;;;;;;20.00;12.48;;;6.70;99.90;;;;;;5112314;27;20492;-75
2022/03/11 02:54:34;;;;;;;20.90;12.82;;;6.20;99.90;;;;;;5130374;27;20043;-75
2022/03/11 02:57:00;;;;;;;22.83;13.55;;;4.90;99.90;;;;;;5132838;27;20527;-75
2022/03/11 02:59:26;;;;;;;21.63;13.13;;;6.40;99.90;;;;;;5152357;27;20407;-75
2022/03/11 03:01:52;;;;;;;21.38;13.27;;;4.90;99.90;;;;;;5132265;27;20095;-75
2022/03/11 03:04:18;;;;;;;19.98;13.02;;;;;;;;;;5132994;27;20051;-75
2022/03/11 03:06:44;;;;;;;21.60;13.30;;;4.80;99.90;;;;;;5132612;27;20455;-75
2022/03/11 03:09:10;;;;;;;23.80;14.10;;;4.80;99.90;;;;;;5151527;27;20043;-75
2022/03/11 03:11:36;;;;;;;23.08;14.70;;;6.30;99.90;;;;;;5134531;27;20043;-75
2022/03/11 03:14:02;;;;;;;23.85;14.35;;;6.20;99.90;;;;;;5152481;27;20050;-75
2022/03/11 03:16:28;;;;;;;23.17;13.65;;;6.10;99.90;;;;;;5132571;27;20073;-75
2022/03/11 03:18:54;;;;;;;23.50;14.32;;;6.10;99.90;;;;;;5132057;27;20047;-75
2022/03/11 03:21:21;;;;;;;25.63;15.00;;;4.70;99.90;;;;;;5152082;27;20388;-75
2022/03/11 03:23:48;;;;;;;27.65;15.23;;;6.10;99.90;;;;;;5128367;27;20463;-75
2022/03/11 03:26:13;;;;;;;23.70;15.02;;;6.30;99.90;;;;;;5131986;27;20099;-75
2022/03/11 03:28:39;;;;;;;23.70;14.40;;;6.20;99.90;;;;;;5149179;27;20035;-75
2022/03/11 03:31:05;;;;;;;22.75;14.02;;;4.50;99.90;;;;;;5152863;27;20053;-75
2022/03/11 03:33:31;;;;;;;23.90;15.30;;;4.60;99.90;;;;;;5130627;27;20035;-75
2022/03/11 03:35:57;;;;;;;25.08;15.90;;;4.60;99.90;;;;;;5151025;27;20039;-75
2022/03/11 03:38:23;;;;;;;24.48;14.95;;;4.60;99.90;;;;;;5117092;27;20046;-75
2022/03/11 03:40:48;;;;;;;24.95;15.20;;;5.50;99.90;;;;;;5152981;27;20050;-75
2022/03/11 03:43:14;;;;;;;22.83;14.15;;;4.60;99.90;;;;;;5150519;27;20086;-75
2022/03/11 03:45:40;;;;;;;25.67;15.65;;;4.50;99.90;;;;;;5132308;27;20046;-74
2022/03/11 03:48:06;;;;;;;24.55;15.57;;;4.40;99.90;;;;;;5114080;27;20043;-74
2022/03/11 03:50:32;;;;;;;25.25;15.27;;;4.70;99.90;;;;;;5133946;27;20034;-74
2022/03/11 03:52:58;;;;;;;25.58;15.40;;;4.40;99.90;;;;;;5131715;27;20185;-74
2022/03/11 03:55:24;;;;;;;26.85;15.98;;;6.10;99.90;;;;;;5115636;27;20057;-75
2022/03/11 03:57:50;;;;;;;26.73;15.20;;;;;;;;;;5149488;27;20148;-75
2022/03/11 04:00:16;;;;;;;25.15;15.13;;;4.30;99.90;;;;;;5132984;27;20053;-75
2022/03/11 04:02:49;;;;;;;26.38;15.75;;;4.30;99.90;;;;;;5113350;27;20126;-75
2022/03/11 04:05:17;;;;;;;31.00;16.85;;;4.20;99.90;;;;;;5132297;27;20137;-75
2022/03/11 04:07:44;;;;;;;26.50;16.13;;;4.30;99.90;;;;;;5132422;27;20495;-75
2022/03/11 04:10:11;;;;;;;25.50;15.70;;;4.20;99.90;;;;;;5115559;27;20129;-75
2022/03/11 04:12:38;;;;;;;28.15;16.40;;;4.20;99.90;;;;;;5130894;27;20039;-75
2022/03/11 04:15:04;;;;;;;25.35;16.13;;;4.90;99.90;;;;;;5132417;27;20056;-75
2022/03/11 04:17:30;;;;;;;24.90;16.15;;;4.20;99.90;;;;;;5112895;27;20375;-74
2022/03/11 04:19:56;;;;;;;27.67;15.88;;;3.80;99.90;;;;;;5150370;27;20045;-75
2022/03/11 04:22:21;;;;;;;26.20;16.90;;;4.10;99.90;;;;;;5114380;27;20670;-74
2022/03/11 04:24:47;;;;;;;26.85;16.35;;;4.00;99.90;;;;;;5149052;27;20459;-75
2022/03/11 04:27:13;;;;;;;25.40;15.95;;;4.10;99.90;;;;;;5132185;27;20046;-75
2022/03/11 04:29:38;;;;;;;28.25;16.70;;;4.10;99.90;;;;;;5114320;27;20039;-75
2022/03/11 04:32:05;;;;;;;27.65;16.00;;;4.10;99.90;;;;;;5129941;27;20038;-75
2022/03/11 04:34:30;;;;;;;28.33;16.63;;;4.00;99.90;;;;;;5130874;27;20442;-75
2022/03/11 04:36:56;;;;;;;27.45;17.20;;;5.40;99.90;;;;;;5131305;27;20051;-75
2022/03/11 04:39:26;;;;;;;27.38;16.80;;;3.90;99.90;;;;;;5149436;27;20046;-75
2022/03/11 04:41:56;;;;;;;26.77;15.88;;;3.90;99.90;;;;;;5131107;27;20089;-75
2022/03/11 04:44:22;;;;;;;23.77;15.27;;;3.90;99.90;;;;;;5131944;27;20038;-75
2022/03/11 04:46:48;;;;;;;26.95;16.00;;;3.80;99.90;;;;;;5113809;27;20050;-76
2022/03/11 04:49:14;;;;;;;28.00;16.27;;;3.80;99.90;;;;;;5148944;27;20115;-75
2022/03/11 04:51:39;;;;;;;27.60;16.77;;;5.30;99.90;;;;;;5130828;27;20121;-75
2022/03/11 04:54:06;;;;;;;27.10;15.85;;;3.80;99.90;;;;;;5130328;27;20054;-75
2022/03/11 04:56:32;;;;;;;25.05;16.45;;;4.50;99.90;;;;;;5150125;27;20062;-75
2022/03/11 04:58:58;;;;;;;29.00;16.55;;;3.70;99.90;;;;;;5149545;27;20138;-75
2022/03/11 05:01:25;;;;;;;24.70;15.18;;;3.60;99.90;;;;;;5149443;27;20046;-75
2022/03/11 05:03:51;;;;;;;25.48;16.52;;;3.70;99.90;;;;;;5148205;27;20050;-75
2022/03/11 05:06:17;;;;;;;29.20;16.13;;;5.30;99.90;;;;;;5116868;27;20513;-75
2022/03/11 05:08:43;;;;;;;27.10;15.63;;;3.60;99.90;;;;;;5149438;27;20494;-75
2022/03/11 05:11:09;;;;;;;27.02;16.55;;;5.00;99.90;;;;;;5150241;27;20162;-75
2022/03/11 05:13:34;;;;;;;24.08;15.65;;;3.60;99.90;;;;;;5148995;27;20039;-75
2022/03/11 05:16:00;;;;;;;26.25;16.13;;;3.60;99.90;;;;;;5151356;27;20126;-75
2022/03/11 05:18:26;;;;;;;26.50;15.57;;;4.30;99.90;;;;;;5130177;27;20054;-75
2022/03/11 05:20:52;;;;;;;24.48;15.95;;;3.50;99.90;;;;;;5148402;27;20039;-75
2022/03/11 05:23:17;;;;;;;29.48;16.15;;;3.40;99.90;;;;;;5129909;27;20047;-75
2022/03/11 05:25:43;;;;;;;26.48;15.60;;;3.50;99.90;;;;;;5113811;27;20043;-75
2022/03/11 05:28:09;;;;;;;27.63;16.50;;;3.50;99.90;;;;;;5127318;27;20046;-75
2022/03/11 05:30:36;;;;;;;26.13;15.77;;;3.90;99.90;;;;;;5135136;27;20117;-75
2022/03/11 05:33:03;;;;;;;28.48;15.77;;;5.20;99.90;;;;;;5129649;27;20117;-75
2022/03/11 05:35:29;;;;;;;24.77;15.50;;;3.40;99.90;;;;;;5112408;27;20125;-75
2022/03/11 05:37:55;;;;;;;27.52;16.85;;;3.40;99.90;;;;;;5112802;27;20126;-75
2022/03/11 05:40:23;;;;;;;24.27;15.27;;;3.40;99.90;;;;;;5149553;27;20039;-76
2022/03/11 05:42:49;;;;;;;30.23;16.35;;;3.40;99.90;;;;;;5147834;27;20092;-75
2022/03/11 05:45:15;;;;;;;28.90;16.25;;;3.30;99.90;;;;;;5113750;27;20065;-76
2022/03/11 05:47:42;;;;;;;26.45;16.42;;;4.90;99.90;;;;;;5113162;27;20078;-76
2022/03/11 05:50:09;;;;;;;26.55;15.75;;;3.30;99.90;;;;;;5149843;27;20075;-76
2022/03/11 05:52:36;;;;;;;27.48;16.85;;;3.10;99.90;;;;;;5147760;27;20123;-75
2022/03/11 05:55:03;;;;;;;27.50;16.55;;;3.20;99.90;;;;;;5129944;28;20071;-76
2022/03/11 05:57:29;;;;;;;27.42;15.75;;;1.70;99.90;;;;;;5130795;27;20383;-76
2022/03/11 05:59:54;;;;;;;27.38;16.65;;;3.20;99.90;;;;;;5148817;27;20110;-75
2022/03/11 06:02:20;;;;;;;30.45;17.08;;;3.20;99.90;;;;;;5129819;27;20045;-75
2022/03/11 06:04:46;;;;;;;26.63;16.23;;;3.20;99.90;;;;;;5128560;27;20282;-75
2022/03/11 06:07:11;;;;;;;24.98;16.75;;;3.30;99.90;;;;;;5129954;27;20049;-75
2022/03/11 06:09:37;;;;;;;26.17;17.17;;;3.30;99.90;;;;;;5114880;27;20475;-76
2022/03/11 06:12:03;;;;;;;29.33;16.80;;;3.90;99.90;;;;;;5129228;27;20043;-75
2022/03/11 06:14:29;;;;;;;25.95;16.25;;;3.30;99.90;;;;;;5130451;27;20170;-75
2022/03/11 06:16:55;;;;;;;30.75;17.55;;;3.20;99.90;;;;;;5148114;27;20527;-74
2022/03/11 06:19:21;;;;;;;26.95;16.63;;;3.20;99.90;;;;;;5129033;27;20114;-74
2022/03/11 06:21:46;;;;;;;26.15;16.58;;;3.20;99.90;;;;;;5148354;27;20543;-74
2022/03/11 06:24:15;;;;;;;25.02;16.05;;;4.00;99.90;;;;;;5130043;27;20092;-74
2022/03/11 06:26:41;;;;;;;27.67;16.30;;;3.20;99.90;;;;;;5150595;27;20416;-74
2022/03/11 06:29:07;;;;;;;27.33;16.83;;;3.20;99.90;;;;;;5147915;27;20078;-74
2022/03/11 06:31:33;;;;;;;26.45;16.83;;;3.90;99.90;;;;;;5130600;27;20728;-74
2022/03/11 06:33:59;;;;;;;26.80;16.05;;;4.90;99.90;;;;;;5151529;27;20039;-74
2022/03/11 06:36:28;;;;;;;26.63;15.50;;;3.90;99.90;;;;;;5133785;27;20423;-75
2022/03/11 06:38:55;;;;;;;24.25;15.80;;;3.30;99.90;;;;;;5151021;27;20134;-75
2022/03/11 06:41:21;;;;;;;26.85;15.93;;;3.30;99.90;;;;;;5133293;27;20043;-75
2022/03/11 06:43:47;;;;;;;28.33;15.77;;;3.30;99.90;;;;;;5101989;27;20039;-74
2022/03/11 06:46:16;;;;;;;28.02;15.82;;;3.30;99.90;;;;;;5135496;27;20165;-75
2022/03/11 06:48:42;;;;;;;26.38;16.27;;;4.30;99.90;;;;;;5151234;27;20050;-75
2022/03/11 06:51:07;;;;;;;26.23;16.38;;;2.60;99.90;;;;;;5152487;27;20039;-74
2022/03/11 06:53:33;;;;;;;27.33;15.93;;;5.30;99.90;;;;;;5150997;27;20046;-75
2022/03/11 06:56:00;;;;;;;25.33;15.70;;;5.70;99.90;;;;;;5116620;27;20153;-75
2022/03/11 06:58:27;;;;;;;22.95;15.02;;;7.00;99.90;;;;;;5132877;27;20062;-75
2022/03/11 07:00:53;;;;;;;21.85;13.68;;;7.70;99.90;;;;;;5132562;27;20050;-74
2022/03/11 07:03:19;;;;;;;24.90;15.30;;;8.90;99.90;;;;;;5150426;27;20055;-75
2022/03/11 07:05:45;;;;;;;24.95;14.73;;;9.20;99.90;;;;;;5132848;27;20384;-75
2022/03/11 07:08:12;;;;;;;22.65;13.82;;;10.30;99.90;;;;;;5132290;27;20506;-75
2022/03/11 07:10:37;;;;;;;22.42;14.98;;;10.90;99.80;;;;;;5137723;27;20039;-76
2022/03/11 07:13:03;;;;;;;21.63;14.27;;;11.50;97.80;;;;;;5119606;27;20055;-80
2022/03/11 07:15:30;;;;;;;20.60;14.20;;;11.70;97.20;;;;;;5111193;27;20036;-77
2022/03/11 07:17:55;;;;;;;22.88;14.38;;;11.80;96.10;;;;;;5130150;27;20086;-76
2022/03/11 07:20:21;;;;;;;23.27;14.95;;;12.30;95.30;;;;;;5131060;27;20131;-75
2022/03/11 07:22:48;;;;;;;21.45;14.05;;;12.80;94.20;;;;;;5093750;27;20077;-76
2022/03/11 07:25:17;;;;;;;23.98;14.77;;;13.10;92.20;;;;;;5113287;27;20054;-76
2022/03/11 07:27:45;;;;;;;22.50;14.65;;;12.20;92.40;;;;;;5114418;27;20544;-76
2022/03/11 07:30:12;;;;;;;22.73;14.77;;;12.30;92.50;;;;;;5110504;27;20046;-77
2022/03/11 07:32:38;;;;;;;24.38;14.45;;;12.00;92.30;;;;;;5130365;27;20107;-75
2022/03/11 07:35:05;;;;;;;22.83;14.05;;;12.80;91.70;;;;;;5132477;27;20352;-76
2022/03/11 07:37:30;;;;;;;23.50;15.13;;;12.30;91.20;;;;;;5148699;27;20051;-77
2022/03/11 07:39:56;;;;;;;20.98;14.23;;;12.00;91.30;;;;;;5132827;27;20103;-77
2022/03/11 07:42:22;;;;;;;19.50;13.60;;;11.70;92.40;;;;;;5105092;27;20054;-77
2022/03/11 07:44:47;;;;;;;23.30;14.93;;;11.70;91.80;;;;;;5111015;27;20039;-76
2022/03/11 07:47:13;;;;;;;21.30;14.95;;;12.60;91.20;;;;;;5130286;27;20432;-77
2022/03/11 07:49:39;;;;;;;23.55;14.57;;;12.00;91.40;;;;;;5127483;27;20448;-76
2022/03/11 07:52:05;;;;;;;18.73;13.75;;;12.40;91.00;;;;;;5130516;27;20054;-77
2022/03/11 07:54:31;;;;;;;22.30;13.93;;;12.60;89.80;;;;;;5131070;27;20042;-76
2022/03/11 07:56:57;;;;;;;19.88;14.68;;;13.50;88.90;;;;;;5114668;27;20047;-76
2022/03/11 07:59:23;;;;;;;21.42;13.57;;;14.80;85.90;;;;;;5133939;27;20250;-77
2022/03/11 08:01:49;;;;;;;23.38;14.80;;;16.20;79.70;;;;;;5131522;27;20443;-77
2022/03/11 08:04:16;;;;;;;24.42;14.27;;;15.50;75.80;;;;;;5149709;27;20046;-77
2022/03/11 08:06:43;;;;;;;21.00;14.73;;;13.30;77.10;;;;;;5141780;27;20160;-76
2022/03/11 08:09:09;;;;;;;23.48;14.60;;;11.60;81.80;;;;;;5150825;27;20069;-77
2022/03/11 08:11:34;;;;;;;21.48;15.18;;;11.50;85.60;;;;;;5131474;27;20479;-77
2022/03/11 08:14:00;;;;;;;21.50;14.57;;;12.90;84.90;;;;;;5130498;27;20110;-76
2022/03/11 08:16:25;;;;;;;21.08;14.25;;;14.60;80.70;;;;;;5111774;27;20043;-76
2022/03/11 08:18:51;;;;;;;20.02;13.77;;;15.40;76.40;;;;;;5108578;27;20134;-76
2022/03/11 08:21:17;;;;;;;22.58;14.57;;;16.30;74.50;;;;;;5113102;27;20066;-76
2022/03/11 08:23:44;;;;;;;21.60;14.48;;;18.20;71.20;;;;;;5095918;27;20411;-75
2022/03/11 08:26:10;;;;;;;21.48;14.00;;;17.60;67.90;;;;;;5143136;27;20027;-74
2022/03/11 08:28:39;;;;;;;20.98;14.00;;;18.30;65.80;;;;;;5149944;27;20441;-74
2022/03/11 08:31:05;;;;;;;22.90;14.25;;;18.40;63.20;;;;;;5150022;27;20056;-75
2022/03/11 08:33:32;;;;;;;22.60;13.75;;;16.00;63.60;;;;;;5109579;27;20079;-76
2022/03/11 08:35:58;;;;;;;22.33;14.40;;;13.90;67.10;;;;;;5124066;27;20126;-76
2022/03/11 08:38:24;;;;;;;21.33;14.20;;;12.80;70.30;;;;;;5109420;27;20150;-76
2022/03/11 08:40:50;;;;;;;19.48;13.73;;;12.40;73.70;;;;;;5136431;27;20145;-75
2022/03/11 08:43:15;;;;;;;23.85;14.25;;;11.60;76.30;;;;;;5131135;27;20121;-75
2022/03/11 08:45:43;;;;;;;21.10;14.30;;;10.80;78.70;;;;;;5149243;27;20046;-75
2022/03/11 08:48:08;;;;;;;22.00;14.02;;;10.40;80.80;;;;;;5149201;27;20035;-75
2022/03/11 08:50:34;;;;;;;20.92;14.23;;;10.50;81.70;;;;;;5130813;27;20121;-75
2022/03/11 08:53:00;;;;;;;20.77;14.57;;;13.30;79.00;;;;;;5131899;27;20061;-74
2022/03/11 08:55:26;;;;;;;24.42;14.13;;;15.30;73.60;;;;;;5132253;27;20529;-75
2022/03/11 08:57:52;;;;;;;23.27;14.40;;;16.90;67.90;;;;;;5126286;27;20353;-75
2022/03/11 09:00:20;;;;;;;20.08;13.82;;;18.40;64.90;;;;;;5140795;27;20119;-75
2022/03/11 09:02:50;;;;;;;25.55;15.90;;;19.40;60.40;;;;;;5125026;27;20046;-76
2022/03/11 09:05:18;;;;;;;20.95;14.18;;;19.80;58.00;;;;;;5130948;27;20098;-75
2022/03/11 09:07:45;;;;;;;17.90;13.25;;;20.30;56.40;;;;;;5147679;27;20041;-73
2022/03/11 09:10:11;;;;;;;21.30;14.80;;;20.70;54.20;;;;;;5131199;27;20050;-78
2022/03/11 09:12:37;;;;;;;25.63;14.95;;;21.00;53.80;;;;;;5125507;27;20118;-78
2022/03/11 09:15:05;;;;;;;23.52;14.43;;;21.40;52.40;;;;;;5129873;27;20043;-78
2022/03/11 09:17:30;;;;;;;19.98;13.18;;;21.70;50.50;;;;;;5109536;27;20041;-77
2022/03/11 09:19:58;;;;;;;20.67;13.93;;;21.60;50.10;;;;;;5142941;27;20039;-77
2022/03/11 09:22:27;;;;;;;21.65;14.98;;;21.90;49.90;;;;;;5128862;27;20035;-77
2022/03/11 09:24:53;;;;;;;20.17;13.68;;;22.40;50.00;;;;;;5149850;27;20101;-77
2022/03/11 09:27:18;;;;;;;22.10;14.15;;;23.30;48.10;;;;;;5129039;27;20151;-75
2022/03/11 09:29:44;;;;;;;19.65;14.27;;;23.90;46.50;;;;;;5126657;27;20402;-75
2022/03/11 09:32:10;;;;;;;24.25;13.85;;;24.20;45.90;;;;;;5127207;27;20050;-75
2022/03/11 09:34:40;;;;;;;21.10;14.13;;;23.90;45.10;;;;;;5147233;27;20046;-77
2022/03/11 09:37:07;;;;;;;19.60;14.05;;;23.50;44.50;;;;;;5127066;27;20049;-76
2022/03/11 09:39:33;;;;;;;20.35;13.48;;;24.20;44.10;;;;;;5104562;27;20053;-76
2022/03/11 09:42:00;;;;;;;17.23;13.85;;;24.00;43.00;;;;;;5111522;27;20551;-76
2022/03/11 09:44:26;;;;;;;23.50;14.00;;;24.00;43.70;;;;;;5149324;27;20045;-76
2022/03/11 09:46:53;;;;;;;21.48;14.50;;;24.10;43.80;;;;;;5129644;27;20035;-76
2022/03/11 09:49:19;;;;;;;22.70;13.32;;;24.40;42.60;;;;;;5099706;28;20120;-76
2022/03/11 09:51:45;;;;;;;20.45;13.82;;;24.40;42.60;;;;;;5108942;28;20047;-76
2022/03/11 09:54:12;;;;;;;17.85;13.65;;;24.70;42.20;;;;;;5128437;28;20122;-76
2022/03/11 09:56:40;;;;;;;19.00;13.52;;;25.30;41.70;;;;;;5109396;28;20047;-76
2022/03/11 09:59:10;;;;;;;17.77;13.50;;;25.40;41.20;;;;;;5132819;27;20111;-77
2022/03/11 10:01:38;;;;;;;19.80;13.85;;;25.80;41.30;;;;;;5129823;27;20439;-77
2022/03/11 10:04:06;;;;;;;17.85;13.50;;;26.40;41.00;;;;;;5129933;27;20494;-76
2022/03/11 10:06:46;;;;;;;20.17;14.02;;;26.70;39.70;;;;;;5131393;27;20432;-77
2022/03/11 10:09:18;;;;;;;17.83;13.05;;;26.40;39.50;;;;;;5132992;27;20043;-76
2022/03/11 10:11:46;;;;;;;17.75;12.95;;;26.80;38.70;;;;;;5133952;27;20056;-76
2022/03/11 10:14:12;;;;;;;17.95;13.48;;;26.30;38.20;;;;;;5133888;27;20046;-78
2022/03/11 10:16:40;;;;;;;18.83;13.55;;;25.80;39.30;;;;;;5151960;27;20054;-77
2022/03/11 10:19:08;;;;;;;19.10;13.57;;;25.70;38.90;;;;;;5149639;27;20077;-77
2022/03/11 10:21:37;;;;;;;16.05;12.90;;;26.10;39.40;;;;;;5135953;27;20075;-77
2022/03/11 10:24:06;;;;;;;19.92;13.52;;;26.70;38.50;;;;;;5131665;27;20054;-77
2022/03/11 10:26:46;;;;;;;16.10;12.70;;;26.50;37.30;;;;;;5113933;27;20483;-76
2022/03/11 10:29:15;;;;;;;17.48;13.32;;;25.70;37.80;;;;;;5142678;27;20034;-76
2022/03/11 10:31:43;;;;;;;17.85;13.18;;;25.10;38.10;;;;;;5150725;27;20110;-76
2022/03/11 10:34:15;;;;;;;19.35;13.98;;;24.80;38.50;;;;;;5114896;27;20047;-77
2022/03/11 10:36:48;;;;;;;17.60;13.00;;;24.50;38.90;;;;;;5112137;27;20344;-76
2022/03/11 10:39:15;;;;;;;16.58;13.18;;;25.20;38.30;;;;;;5152842;27;20093;-77
2022/03/11 10:41:41;;;;;;;23.35;13.65;;;25.50;38.60;;;;;;5117638;27;20042;-77
2022/03/11 10:44:09;;;;;;;19.83;13.52;;;25.80;38.10;;;;;;5130318;27;20046;-76
2022/03/11 10:46:35;;;;;;;18.08;13.27;;;26.90;38.10;;;;;;5130958;27;20043;-78
2022/03/11 10:49:01;;;;;;;17.15;13.65;;;27.50;36.70;;;;;;5112874;27;20097;-76
2022/03/11 10:51:33;;;;;;;17.02;13.15;;;27.20;36.70;;;;;;5132861;27;20034;-77
2022/03/11 10:54:01;;;;;;;17.25;12.77;;;27.60;36.70;;;;;;5135873;27;20047;-74
2022/03/11 10:56:35;;;;;;;16.75;13.50;;;27.40;37.50;;;;;;5112895;27;20428;-74
2022/03/11 10:59:13;;;;;;;18.80;13.00;;;27.00;36.50;;;;;;5129161;27;20063;-72
2022/03/11 11:01:41;;;;;;;16.35;13.65;;;27.00;36.10;;;;;;5148404;27;20210;-75
2022/03/11 11:04:10;;;;;;;18.65;13.70;;;27.00;36.20;;;;;;5127632;27;20043;-73
2022/03/11 11:06:37;;;;;;;19.90;13.48;;;27.10;36.30;;;;;;5129325;27;20209;-74
2022/03/11 11:09:04;;;;;;;18.83;13.35;;;27.50;35.90;;;;;;5146577;27;20130;-73
2022/03/11 11:11:32;;;;;;;18.00;13.07;;;28.20;35.60;;;;;;5128924;27;20046;-73
2022/03/11 11:14:07;;;;;;;19.67;13.25;;;27.70;35.00;;;;;;5152317;27;20129;-73
2022/03/11 11:16:40;;;;;;;19.35;13.32;;;27.30;35.50;;;;;;5127360;27;20047;-73
2022/03/11 11:19:11;;;;;;;20.00;13.07;;;27.50;35.30;;;;;;5105840;27;20086;-74
2022/03/11 11:21:46;;;;;;;16.38;13.43;;;27.90;35.40;;;;;;5123825;27;20047;-74
2022/03/11 11:24:19;;;;;;;19.60;12.90;;;28.30;35.00;;;;;;5129465;27;20115;-75
2022/03/11 11:26:50;;;;;;;15.32;12.20;;;28.00;35.00;;;;;;5142022;27;20385;-73
2022/03/11 11:29:22;;;;;;;18.00;12.45;;;28.40;34.60;;;;;;5127134;27;20062;-74
2022/03/11 11:31:49;;;;;;;17.42;12.93;;;27.80;34.60;;;;;;5120199;27;20123;-73
2022/03/11 11:34:33;;;;;;;19.08;12.40;;;28.10;34.50;;;;;;5145763;27;20053;-73
2022/03/11 11:37:00;;;;;;;20.10;12.57;;;27.60;33.90;;;;;;5128203;27;20111;-73
2022/03/11 11:39:38;;;;;;;15.77;11.77;;;27.10;34.80;;;;;;5147501;27;20057;-73
2022/03/11 11:42:12;;;;;;;16.75;12.68;;;27.20;34.00;;;;;;5129084;27;20047;-73
2022/03/11 11:44:40;;;;;;;18.15;12.90;;;26.50;34.10;;;;;;5128869;27;20149;-72
2022/03/11 11:47:15;;;;;;;15.45;12.15;;;26.00;35.00;;;;;;5129658;27;20046;-73
2022/03/11 11:49:44;;;;;;;16.23;13.07;;;25.60;34.20;;;;;;5128606;27;20083;-72
2022/03/11 11:52:24;;;;;;;18.17;12.68;;;24.70;35.40;;;;;;5128912;27;20339;-72
2022/03/11 11:54:49;;;;;;;15.65;12.23;;;24.90;35.60;;;;;;5148764;27;20042;-74
2022/03/11 11:57:16;;;;;;;18.85;13.00;;;25.30;35.00;;;;;;5131453;27;20359;-76
2022/03/11 11:59:42;;;;;;;18.30;14.57;;;25.00;35.40;;;;;;5114966;27;20054;-76
2022/03/11 12:02:26;;;;;;;16.05;12.38;;;25.50;35.30;;;;;;5150327;27;20447;-73
2022/03/11 12:04:52;;;;;;;18.02;12.55;;;25.80;34.80;;;;;;5150333;27;20073;-70
2022/03/11 12:07:20;;;;;;;17.52;13.55;;;25.90;35.20;;;;;;5124075;27;20043;-77
2022/03/11 12:10:04;;;;;;;21.77;12.50;;;25.70;35.50;;;;;;5110819;27;20035;-74
2022/03/11 12:12:36;;;;;;;18.17;13.55;;;25.90;35.10;;;;;;5110984;27;20051;-76
2022/03/11 12:15:03;;;;;;;15.25;12.30;;;26.20;34.80;;;;;;5111104;27;20058;-72
2022/03/11 12:17:37;;;;;;;14.50;11.90;;;26.40;34.40;;;;;;5128424;27;20067;-75
2022/03/11 12:20:21;;;;;;;16.27;12.25;;;26.10;34.60;;;;;;5130666;27;20092;-73
2022/03/11 12:23:01;;;;;;;15.90;11.65;;;25.70;35.10;;;;;;5130133;27;20367;-73
2022/03/11 12:25:44;;;;;;;15.95;11.40;;;25.80;35.00;;;;;;5132096;27;20043;-78
2022/03/11 12:28:24;;;;;;;18.88;13.35;;;25.40;34.70;;;;;;5128337;27;20049;-80
2022/03/11 12:30:50;;;;;;;17.60;12.88;;;24.50;36.00;;;;;;5094084;27;20047;-80
2022/03/11 12:33:21;;;;;;;18.75;11.82;;;21.70;37.50;;;;;;5103090;27;20133;-79
2022/03/11 12:35:52;;;;;;;17.05;12.23;;;19.80;39.20;;;;;;5118436;27;20102;-76